createdAt,value
2022-10-27T00:00:43.441Z,101987.78
2022-10-27T00:05:40.744Z,101838.50
2022-10-27T00:10:34.321Z,101982.09
2022-10-27T00:15:27.710Z,102099.88
2022-10-27T00:20:22.563Z,101874.25
2022-10-27T00:25:17.461Z,102100.28
2022-10-27T00:30:11.977Z,102104.72
2022-10-27T00:35:06.031Z,102095.28
2022-10-27T00:39:59.353Z,102024.84
2022-10-27T00:44:54.156Z,101906.91
2022-10-27T00:49:57.957Z,101900.47
2022-10-27T00:54:52.051Z,102108.81
2022-10-27T00:59:45.533Z,102100.44
2022-10-27T01:04:46.718Z,102105.66
2022-10-27T01:09:44.361Z,101903.31
2022-10-27T01:14:38.551Z,101902.50
2022-10-27T01:20:10.966Z,101883.81
2022-10-27T01:25:35.574Z,101894.22
2022-10-27T01:30:31.888Z,101988.03
2022-10-27T01:35:35.473Z,101924.69
2022-10-27T01:40:41.155Z,101906.34
2022-10-27T01:45:41.757Z,102019.28
2022-10-27T01:50:50.827Z,101979.41
2022-10-27T01:56:05.811Z,101932.94
2022-10-27T02:01:13.993Z,101960.75
2022-10-27T02:06:16.790Z,101932.72
2022-10-27T02:11:11.778Z,102017.75
2022-10-27T02:16:10.163Z,102077.75
2022-10-27T02:21:07.850Z,101938.78
2022-10-27T02:26:32.778Z,102148.47
2022-10-27T02:31:30.648Z,102033.19
2022-10-27T02:36:24.762Z,101920.13
2022-10-27T02:41:22.095Z,102171.06
2022-10-27T02:46:15.721Z,102075.13
2022-10-27T02:51:13.055Z,101985.47
2022-10-27T02:56:10.568Z,102129.81
2022-10-27T03:01:09.429Z,102060.09
2022-10-27T03:06:05.983Z,101988.31
2022-10-27T03:11:00.094Z,102142.69
2022-10-27T03:27:23.335Z,102173.56
2022-10-27T03:32:21.397Z,102216.75
2022-10-27T03:37:21.798Z,102127.91
2022-10-27T03:42:16.207Z,102047.66
2022-10-27T03:47:09.862Z,102027.47
2022-10-27T03:52:06.337Z,102153.66
2022-10-27T03:57:01.150Z,102167.53
2022-10-27T04:01:56.774Z,102049.94
2022-10-27T04:06:56.510Z,102246.66
2022-10-27T04:11:50.096Z,102065.44
2022-10-27T04:16:45.129Z,102040.94
2022-10-27T04:22:05.903Z,102224.03
2022-10-27T04:27:02.928Z,102026.84
2022-10-27T04:32:00.542Z,102186.19
2022-10-27T04:36:55.937Z,102058.72
2022-10-27T04:41:50.749Z,102200.94
2022-10-27T04:46:44.450Z,102081.59
2022-10-27T04:51:42.457Z,102247.50
2022-10-27T04:56:36.845Z,102251.50
2022-10-27T05:01:31.994Z,102288.25
2022-10-27T05:06:26.604Z,102085.38
2022-10-27T05:11:21.622Z,102118.75
2022-10-27T05:16:16.941Z,102143.56
2022-10-27T05:21:10.639Z,102178.50
2022-10-27T05:26:13.107Z,102317.56
2022-10-27T05:31:07.745Z,102285.66
2022-10-27T05:36:00.889Z,102337.72
2022-10-27T05:40:57.371Z,102338.06
2022-10-27T05:45:50.566Z,102333.31
2022-10-27T05:50:45.043Z,102355.34
2022-10-27T05:55:38.268Z,102367.31
2022-10-27T06:00:33.380Z,102252.75
2022-10-27T06:05:27.074Z,102376.72
2022-10-27T06:10:21.827Z,102381.66
2022-10-27T06:15:15.508Z,102367.69
2022-10-27T06:20:09.412Z,102331.66
2022-10-27T06:25:02.475Z,102389.53
2022-10-27T06:29:56.960Z,102347.53
2022-10-27T06:34:50.040Z,102344.50
2022-10-27T06:39:43.137Z,102364.03
2022-10-27T06:44:36.189Z,102408.38
2022-10-27T06:49:33.450Z,102306.69
2022-10-27T06:54:27.106Z,102405.16
2022-10-27T06:59:20.178Z,102421.38
2022-10-27T07:04:13.252Z,102404.25
2022-10-27T07:09:09.821Z,102426.25
2022-10-27T07:14:03.316Z,102427.66
2022-10-27T07:18:56.489Z,102403.78
2022-10-27T07:23:49.532Z,102427.06
2022-10-27T07:28:43.968Z,102430.97
2022-10-27T07:33:37.122Z,102398.22
2022-10-27T07:38:32.771Z,102412.41
2022-10-27T07:43:25.861Z,102390.50
2022-10-27T07:48:20.368Z,102430.06
2022-10-27T07:53:15.524Z,102438.44
2022-10-27T07:58:11.100Z,102433.59
2022-10-27T08:03:05.144Z,102423.72
2022-10-27T08:08:00.433Z,102429.31
2022-10-27T08:12:53.653Z,102439.13
2022-10-27T08:17:52.068Z,102432.50
2022-10-27T08:22:45.482Z,102455.56
2022-10-27T08:27:40.171Z,102316.47
2022-10-27T08:37:27.406Z,102454.31
2022-10-27T08:42:34.711Z,102455.25
2022-10-27T08:47:29.794Z,102456.44
2022-10-27T08:52:29.223Z,102437.22
2022-10-27T08:57:26.646Z,102417.53
2022-10-27T09:02:50.696Z,102442.88
2022-10-27T09:07:53.049Z,102402.28
2022-10-27T09:13:03.177Z,102441.50
2022-10-27T09:18:03.776Z,102440.66
2022-10-27T09:23:00.796Z,102402.47
2022-10-27T09:27:56.017Z,102435.72
2022-10-27T09:32:53.931Z,102435.34
2022-10-27T09:37:49.186Z,102427.38
2022-10-27T09:42:42.657Z,102388.34
2022-10-27T09:47:39.914Z,102390.16
2022-10-27T09:52:36.905Z,102400.47
2022-10-27T09:57:35.334Z,102403.38
2022-10-27T10:02:32.622Z,102399.75
2022-10-27T10:07:33.248Z,102346.75
2022-10-27T10:12:27.487Z,102360.00
2022-10-27T10:17:29.572Z,102365.53
2022-10-27T10:22:28.934Z,102382.19
2022-10-27T10:27:31.345Z,102355.44
2022-10-27T10:32:26.818Z,102349.41
2022-10-27T10:37:37.481Z,102374.81
2022-10-27T10:42:30.605Z,102343.84
2022-10-27T10:47:29.321Z,102372.19
2022-10-27T10:52:25.824Z,102327.06
2022-10-27T10:57:32.049Z,102282.25
2022-10-27T11:02:30.221Z,102322.63
2022-10-27T11:07:27.011Z,102357.38
2022-10-27T11:12:29.307Z,102352.97
2022-10-27T11:17:25.146Z,102328.53
2022-10-27T11:22:22.133Z,102305.09
2022-10-27T11:27:21.189Z,102341.06
2022-10-27T11:32:21.498Z,102320.00
2022-10-27T11:37:23.727Z,102328.16
2022-10-27T11:42:27.393Z,102328.16
2022-10-27T11:47:31.217Z,102260.66
2022-10-27T11:52:30.254Z,102290.44
2022-10-27T11:57:39.740Z,102329.88
2022-10-27T12:02:48.591Z,102329.88
2022-10-27T12:07:55.500Z,102274.78
2022-10-27T12:12:52.223Z,102319.00
2022-10-27T12:17:51.278Z,102255.81
2022-10-27T12:22:51.605Z,102318.56
2022-10-27T12:27:51.166Z,102189.34
2022-10-27T12:32:52.099Z,102276.66
2022-10-27T12:37:58.980Z,102313.38
2022-10-27T12:43:04.509Z,102330.44
2022-10-27T12:48:09.152Z,102293.16
2022-10-27T12:53:13.089Z,102272.84
2022-10-27T12:58:11.938Z,102297.16
2022-10-27T13:03:39.827Z,102297.69
2022-10-27T13:08:56.348Z,102271.69
2022-10-27T13:14:12.095Z,102289.00
2022-10-27T13:19:20.569Z,102320.59
2022-10-27T13:24:30.184Z,102317.09
2022-10-27T13:29:35.231Z,102320.84
2022-10-27T13:34:29.813Z,102321.81
2022-10-27T13:39:47.937Z,102328.78
2022-10-27T13:44:41.261Z,102270.66
2022-10-27T13:50:00.234Z,102182.13
2022-10-27T13:54:56.048Z,102331.38
2022-10-27T13:59:50.818Z,102312.91
2022-10-27T14:04:51.265Z,102321.13
2022-10-27T14:09:49.489Z,102330.34
2022-10-27T14:14:42.963Z,102327.00
2022-10-27T14:19:38.899Z,102291.06
2022-10-27T14:24:47.292Z,102301.59
2022-10-27T14:29:40.541Z,102261.59
2022-10-27T14:34:36.480Z,102271.50
2022-10-27T14:39:34.338Z,102252.03
2022-10-27T14:44:31.422Z,102313.59
2022-10-27T14:49:33.759Z,102165.06
2022-10-27T14:54:30.214Z,102297.03
2022-10-27T14:59:25.463Z,102318.06
2022-10-27T15:04:25.465Z,102126.94
2022-10-27T15:09:31.939Z,102323.91
2022-10-27T15:14:25.618Z,102298.09
2022-10-27T15:19:22.522Z,102295.66
2022-10-27T15:24:18.810Z,102211.09
2022-10-27T15:29:17.160Z,102156.84
2022-10-27T15:39:27.663Z,102333.19
2022-10-27T15:44:27.040Z,102273.97
2022-10-27T15:49:29.472Z,102277.50
2022-10-27T15:54:33.245Z,102251.91
2022-10-27T15:59:28.267Z,102301.50
2022-10-27T16:04:32.550Z,102320.78
2022-10-27T16:09:41.549Z,102265.97
2022-10-27T16:14:34.982Z,102352.50
2022-10-27T16:19:28.383Z,102353.88
2022-10-27T16:24:24.632Z,102300.50
2022-10-27T16:29:23.169Z,102200.28
2022-10-27T16:34:23.632Z,102239.97
2022-10-27T16:39:22.871Z,102364.34
2022-10-27T16:44:17.169Z,102366.44
2022-10-27T16:49:11.849Z,102372.13
2022-10-27T16:54:05.336Z,102279.97
2022-10-27T16:59:11.731Z,102374.63
2022-10-27T17:04:05.292Z,102357.75
2022-10-27T17:09:00.364Z,102308.75
2022-10-27T17:13:53.866Z,102226.56
2022-10-27T17:18:47.830Z,102373.66
2022-10-27T17:23:42.502Z,102352.75
2022-10-27T17:28:37.458Z,102275.69
2022-10-27T17:33:30.949Z,102304.78
2022-10-27T17:38:27.017Z,102296.91
2022-10-27T17:43:20.209Z,102390.00
2022-10-27T17:48:14.831Z,102396.50
2022-10-27T17:53:08.095Z,102354.34
2022-10-27T17:58:01.771Z,102394.78
2022-10-27T18:02:55.133Z,102332.94
2022-10-27T18:07:50.206Z,102399.91
2022-10-27T18:12:43.537Z,102375.22
2022-10-27T18:17:36.705Z,102355.63
2022-10-27T18:22:30.645Z,102408.56
2022-10-27T18:27:27.767Z,102408.91
2022-10-27T18:32:22.501Z,102364.22
2022-10-27T18:37:15.651Z,102354.94
2022-10-27T18:42:08.830Z,102408.28
2022-10-27T18:47:03.537Z,102383.03
2022-10-27T18:51:56.748Z,102286.88
2022-10-27T18:56:50.102Z,102366.50
2022-10-27T19:01:44.447Z,102411.06
2022-10-27T19:06:39.270Z,102407.06
2022-10-27T19:11:35.359Z,102416.06
2022-10-27T19:16:30.991Z,102420.78
2022-10-27T19:21:27.738Z,102394.22
2022-10-27T19:26:26.324Z,102359.97
2022-10-27T19:31:21.712Z,102389.00
2022-10-27T19:36:17.944Z,102435.22
2022-10-27T19:41:12.781Z,102434.69
2022-10-27T19:46:07.848Z,102433.28
2022-10-27T19:51:10.455Z,102354.06
2022-10-27T19:56:04.391Z,102198.81
2022-10-27T20:00:57.777Z,102439.31
2022-10-27T20:05:56.278Z,102402.38
2022-10-27T20:10:49.805Z,102434.66
2022-10-27T20:15:43.107Z,102391.03
2022-10-27T20:20:36.318Z,102308.25
2022-10-27T20:25:31.010Z,102257.75
2022-10-27T20:30:26.748Z,102439.78
2022-10-27T20:35:19.984Z,102439.06
2022-10-27T20:40:21.973Z,102439.06
2022-10-27T20:45:16.942Z,102261.56
2022-10-27T20:50:11.204Z,102334.69
2022-10-27T20:55:05.786Z,102450.38
2022-10-27T20:59:59.161Z,102372.81
2022-10-27T21:04:54.184Z,102408.47
2022-10-27T21:09:47.486Z,102437.19
2022-10-27T21:14:40.736Z,102345.03
2022-10-27T21:19:36.636Z,102412.47
2022-10-27T21:24:33.925Z,102452.16
2022-10-27T21:29:44.864Z,102390.09
2022-10-27T21:34:38.275Z,102450.94
2022-10-27T21:39:32.934Z,102307.28
2022-10-27T21:44:27.895Z,102417.22
2022-10-27T21:49:22.213Z,102463.00
2022-10-27T21:54:15.403Z,102405.06
2022-10-27T21:59:10.032Z,102475.47
2022-10-27T22:04:03.495Z,102463.88
2022-10-27T22:08:57.572Z,102439.31
2022-10-27T22:13:51.691Z,102478.00
2022-10-27T22:18:47.347Z,102286.16
2022-10-27T22:23:40.727Z,102430.03
2022-10-27T22:28:34.276Z,102486.47
2022-10-27T22:33:27.523Z,102456.44
2022-10-27T22:38:22.202Z,102488.88
2022-10-27T22:43:18.108Z,102497.03
2022-10-27T22:48:11.305Z,102437.03
2022-10-27T22:53:04.492Z,102492.44
2022-10-27T22:57:59.043Z,102478.28
2022-10-27T23:02:52.547Z,102305.28
2022-10-27T23:07:45.985Z,102459.03
2022-10-27T23:12:39.291Z,102484.59
2022-10-27T23:17:33.925Z,102481.25
2022-10-27T23:22:27.382Z,102472.19
2022-10-27T23:27:20.826Z,102520.13
2022-10-27T23:32:14.035Z,102517.28
2022-10-27T23:37:08.542Z,102521.78
2022-10-27T23:42:01.693Z,102408.97
2022-10-27T23:46:54.918Z,102520.28
2022-10-27T23:51:48.166Z,102517.09
2022-10-27T23:56:43.906Z,102434.50
